Time;durP1;ratioP1;P1;durP2;ratioP2;P2;SDS_P1;SDS_P2;PMS_P1;PMS_P2;Temp;Humidity;BMP_temperature;BMP_pressure;BME280_temperature;BME280_humidity;BME280_pressure;Samples;Min_cycle;Max_cycle;Signal;HPM_P1;HPM_P2
2023/09/23 00:00:13;;;;;;;1.05;0.50;;;;;;;;;;5093764;28;20428;-75
2023/09/23 00:02:39;;;;;;;0.50;0.30;;;;;;;;;;5093612;28;20085;-75
2023/09/23 00:05:11;;;;;;;0.30;0.28;;;;;;;;;;5093770;28;20031;-75
2023/09/23 00:07:37;;;;;;;0.43;0.20;;;;;;;;;;5093625;28;20415;-75
2023/09/23 00:10:08;;;;;;;0.30;0.30;;;;;;;;;;5093528;28;20040;-75
2023/09/23 00:12:35;;;;;;;0.50;0.30;;;18.90;77.50;;;;;;5093834;28;20031;-75
2023/09/23 00:15:01;;;;;;;0.55;0.30;;;;;;;;;;5092286;28;20039;-75
2023/09/23 00:17:27;;;;;;;0.40;0.35;;;;;;;;;;5093892;28;20028;-75
2023/09/23 00:19:54;;;;;;;0.85;0.30;;;;;;;;;;5093227;28;20355;-75
2023/09/23 00:22:21;;;;;;;1.08;0.63;;;;;;;;;;5093171;28;20158;-75
2023/09/23 00:24:47;;;;;;;0.90;0.40;;;;;;;;;;5093256;28;20465;-75
2023/09/23 00:27:15;;;;;;;0.47;0.30;;;;;;;;;;5093006;28;20343;-75
2023/09/23 00:29:41;;;;;;;0.88;0.40;;;;;;;;;;5093125;28;20485;-75
2023/09/23 00:32:07;;;;;;;0.20;0.15;;;;;;;;;;5093128;28;20038;-75
2023/09/23 00:34:32;;;;;;;0.35;0.30;;;;;;;;;;5093118;28;20024;-75
2023/09/23 00:36:58;;;;;;;0.50;0.20;;;;;;;;;;5093100;28;20016;-75
2023/09/23 00:39:24;;;;;;;0.30;0.20;;;;;;;;;;5092992;28;20444;-75
2023/09/23 00:41:51;;;;;;;0.52;0.30;;;;;;;;;;5092957;28;20055;-75
2023/09/23 00:44:18;;;;;;;0.45;0.35;;;;;;;;;;5092963;28;20016;-75
2023/09/23 00:46:44;;;;;;;0.20;0.20;;;;;;;;;;5093408;28;20035;-75
2023/09/23 00:49:11;;;;;;;0.57;0.30;;;;;;;;;;5092796;28;20036;-75
2023/09/23 00:51:38;;;;;;;1.63;0.70;;;18.60;77.40;;;;;;5092808;28;20391;-75
2023/09/23 00:54:09;;;;;;;0.30;0.28;;;18.70;76.70;;;;;;5092718;28;20076;-75
2023/09/23 00:56:36;;;;;;;1.13;0.45;;;;;;;;;;5092794;28;20013;-75
2023/09/23 00:59:05;;;;;;;1.48;0.30;;;;;;;;;;5092784;28;20477;-76
2023/09/23 01:01:31;;;;;;;0.30;0.20;;;;;;;;;;5092886;28;20024;-75
2023/09/23 01:03:57;;;;;;;0.68;0.40;;;;;;;;;;5092623;28;20107;-75
2023/09/23 01:06:27;;;;;;;0.57;0.47;;;;;;;;;;5091756;28;20112;-75
2023/09/23 01:08:54;;;;;;;0.75;0.45;;;;;;;;;;5092588;28;20040;-75
2023/09/23 01:11:21;;;;;;;0.30;0.20;;;18.70;77.00;;;;;;5092393;28;20077;-75
2023/09/23 01:13:51;;;;;;;0.40;0.30;;;;;;;;;;5091495;28;20486;-75
2023/09/23 01:16:17;;;;;;;0.57;0.40;;;;;;;;;;5092285;28;20024;-75
2023/09/23 01:18:49;;;;;;;0.82;0.30;;;;;;;;;;5092262;28;20051;-76
2023/09/23 01:21:15;;;;;;;0.63;0.40;;;;;;;;;;5092401;28;20026;-76
2023/09/23 01:23:43;;;;;;;0.30;0.30;;;;;;;;;;5092303;28;20110;-75
2023/09/23 01:26:11;;;;;;;0.80;0.40;;;;;;;;;;5092033;28;20043;-76
2023/09/23 01:28:37;;;;;;;0.40;0.30;;;;;;;;;;5092310;28;20039;-76
2023/09/23 01:31:04;;;;;;;0.60;0.43;;;;;;;;;;5092283;28;20073;-76
2023/09/23 01:33:31;;;;;;;0.82;0.50;;;18.70;75.00;;;;;;5092298;28;20020;-76
2023/09/23 01:36:03;;;;;;;0.38;0.30;;;18.70;72.20;;;;;;5092442;28;20085;-76
2023/09/23 01:38:32;;;;;;;0.40;0.40;;;18.60;72.20;;;;;;5090993;28;20020;-76
2023/09/23 01:40:59;;;;;;;0.30;0.28;;;;;;;;;;5092117;28;20047;-76
2023/09/23 01:43:26;;;;;;;0.95;0.60;;;;;;;;;;5092626;28;20023;-75
2023/09/23 01:45:55;;;;;;;1.17;0.40;;;;;;;;;;5092125;28;20493;-75
2023/09/23 01:48:21;;;;;;;1.02;0.93;;;;;;;;;;5091961;28;20499;-75
2023/09/23 01:50:49;;;;;;;0.80;0.40;;;18.60;78.00;;;;;;5091927;28;20107;-75
2023/09/23 01:53:16;;;;;;;0.43;0.32;;;;;;;;;;5091955;28;20020;-75
2023/09/23 01:55:42;;;;;;;0.70;0.30;;;;;;;;;;5092263;28;20346;-75
2023/09/23 01:58:09;;;;;;;0.50;0.30;;;;;;;;;;5091771;28;20021;-75
2023/09/23 02:00:36;;;;;;;0.28;0.20;;;;;;;;;;5091891;28;20024;-75
2023/09/23 02:03:02;;;;;;;0.85;0.30;;;;;;;;;;5091746;28;20028;-75
2023/09/23 02:05:28;;;;;;;0.65;0.45;;;;;;;;;;5092106;28;20386;-75
2023/09/23 02:07:55;;;;;;;0.70;0.47;;;;;;;;;;5091769;28;20028;-75
2023/09/23 02:10:26;;;;;;;0.35;0.30;;;18.50;72.10;;;;;;5091811;28;20495;-75
2023/09/23 02:12:52;;;;;;;1.35;0.32;;;;;;;;;;5092588;28;20020;-75
2023/09/23 02:15:18;;;;;;;1.05;0.55;;;;;;;;;;5091636;28;20107;-75
2023/09/23 02:17:45;;;;;;;0.98;0.32;;;;;;;;;;5094051;28;20024;-75
2023/09/23 02:20:24;;;;;;;0.40;0.40;;;18.60;78.10;;;;;;5095758;28;20028;-75
2023/09/23 02:22:54;;;;;;;0.97;0.30;;;18.50;78.10;;;;;;5095874;28;20020;-75
2023/09/23 02:25:20;;;;;;;1.02;0.45;;;;;;;;;;5095583;28;20039;-75
2023/09/23 02:27:46;;;;;;;0.35;0.30;;;;;;;;;;5095266;28;20056;-76
2023/09/23 02:30:14;;;;;;;1.13;0.45;;;18.50;78.10;;;;;;5095508;28;20028;-76
2023/09/23 02:32:41;;;;;;;1.02;0.50;;;18.50;77.80;;;;;;5095425;28;20019;-76
2023/09/23 02:35:12;;;;;;;0.30;0.30;;;18.40;77.30;;;;;;5095618;28;20023;-76
2023/09/23 02:37:40;;;;;;;0.40;0.30;;;18.50;78.00;;;;;;5095647;28;20377;-76
2023/09/23 02:40:11;;;;;;;0.60;0.52;;;;;;;;;;5095760;28;20020;-76
2023/09/23 02:42:37;;;;;;;0.50;0.40;;;;;;;;;;5095353;28;20077;-76
2023/09/23 02:45:05;;;;;;;0.45;0.38;;;;;;;;;;5095224;28;20030;-75
2023/09/23 02:47:31;;;;;;;0.85;0.30;;;;;;;;;;5095035;28;20017;-76
2023/09/23 02:49:57;;;;;;;0.30;0.30;;;;;;;;;;5095124;28;20405;-76
2023/09/23 02:52:23;;;;;;;0.52;0.40;;;;;;;;;;5095113;28;20024;-75
2023/09/23 02:54:50;;;;;;;0.73;0.32;;;;;;;;;;5095080;28;20079;-75
2023/09/23 02:57:16;;;;;;;1.00;0.40;;;;;;;;;;5094999;28;20052;-75
2023/09/23 02:59:42;;;;;;;1.13;0.40;;;;;;;;;;5095061;28;20035;-76
2023/09/23 03:02:08;;;;;;;0.85;0.30;;;18.40;77.70;;;;;;5094869;28;20463;-76
2023/09/23 03:04:34;;;;;;;0.47;0.47;;;;;;;;;;5094822;28;20391;-75
2023/09/23 03:07:06;;;;;;;0.73;0.40;;;;;;;;;;5095098;28;20063;-76
2023/09/23 03:09:32;;;;;;;0.70;0.40;;;;;;;;;;5095263;28;20035;-75
2023/09/23 03:12:00;;;;;;;0.38;0.22;;;18.40;77.00;;;;;;5094975;28;20020;-76
2023/09/23 03:14:36;;;;;;;0.70;0.50;;;18.40;78.30;;;;;;5094612;28;20024;-76
2023/09/23 03:17:07;;;;;;;0.47;0.32;;;18.40;72.70;;;;;;5094679;28;20016;-75
2023/09/23 03:19:33;;;;;;;0.50;0.35;;;;;;;;;;5094670;28;20021;-76
2023/09/23 03:22:00;;;;;;;1.17;0.50;;;18.40;77.70;;;;;;5094599;28;20016;-76
2023/09/23 03:24:28;;;;;;;0.40;0.40;;;18.40;77.80;;;;;;5094499;28;20032;-75
2023/09/23 03:26:56;;;;;;;0.50;0.30;;;18.40;77.30;;;;;;5094272;28;20127;-76
2023/09/23 03:29:22;;;;;;;0.55;0.40;;;;;;;;;;5093331;28;20031;-76
2023/09/23 03:31:49;;;;;;;0.38;0.35;;;18.30;78.10;;;;;;5094539;28;20062;-75
2023/09/23 03:34:16;;;;;;;0.98;0.52;;;;;;;;;;5094421;28;20107;-75
2023/09/23 03:36:43;;;;;;;0.50;0.40;;;;;;;;;;5094861;28;20075;-76
2023/09/23 03:39:09;;;;;;;1.15;0.40;;;;;;;;;;5094221;28;20069;-76
2023/09/23 03:41:37;;;;;;;0.73;0.40;;;18.40;76.40;;;;;;5094401;28;20031;-76
2023/09/23 03:44:09;;;;;;;0.75;0.30;;;18.30;78.30;;;;;;5094078;28;20024;-76
2023/09/23 03:46:36;;;;;;;1.42;0.40;;;;;;;;;;5094079;28;20024;-76
2023/09/23 03:49:02;;;;;;;1.25;0.60;;;;;;;;;;5094039;28;20061;-76
2023/09/23 03:51:28;;;;;;;1.45;0.55;;;;;;;;;;5093994;28;20060;-76
2023/09/23 03:53:54;;;;;;;0.47;0.43;;;;;;;;;;5093901;28;20066;-76
2023/09/23 03:56:24;;;;;;;0.50;0.30;;;;;;;;;;5093889;28;20439;-75
2023/09/23 03:58:55;;;;;;;;;;;18.30;79.20;;;;;;5094543;28;20028;-75
2023/09/23 04:01:23;;;;;;;0.52;0.40;;;;;;;;;;5093754;28;19918;-76
2023/09/23 04:03:51;;;;;;;0.30;0.30;;;;;;;;;;5093664;28;20067;-76
2023/09/23 04:06:17;;;;;;;1.02;0.28;;;;;;;;;;5094285;28;20028;-76
2023/09/23 04:08:43;;;;;;;0.25;0.25;;;;;;;;;;5093572;28;20039;-76
2023/09/23 04:11:10;;;;;;;0.73;0.40;;;;;;;;;;5093598;28;20172;-76
2023/09/23 04:13:37;;;;;;;0.55;0.30;;;18.20;78.50;;;;;;5093600;28;20031;-76
2023/09/23 04:16:05;;;;;;;1.73;0.35;;;18.30;75.50;;;;;;5093568;28;20093;-76
2023/09/23 04:18:31;;;;;;;0.50;0.40;;;18.30;77.80;;;;;;5093537;28;20592;-75
2023/09/23 04:20:57;;;;;;;0.75;0.40;;;;;;;;;;5093725;28;20073;-76
2023/09/23 04:23:23;;;;;;;1.70;0.40;;;;;;;;;;5093361;28;20099;-76
2023/09/23 04:25:51;;;;;;;0.60;0.47;;;;;;;;;;5093096;28;20016;-75
2023/09/23 04:28:18;;;;;;;0.63;0.30;;;;;;;;;;5093236;28;20054;-76
2023/09/23 04:30:44;;;;;;;0.50;0.40;;;;;;;;;;5093153;28;20359;-76
2023/09/23 04:33:13;;;;;;;1.20;0.30;;;18.30;72.60;;;;;;5093691;28;20044;-75
2023/09/23 04:35:39;;;;;;;1.55;0.50;;;;;;;;;;5093048;28;20031;-76
2023/09/23 04:38:05;;;;;;;0.82;0.38;;;;;;;;;;5093029;28;20065;-76
2023/09/23 04:40:31;;;;;;;0.70;0.52;;;;;;;;;;5092950;28;20101;-76
2023/09/23 04:42:57;;;;;;;0.80;0.43;;;;;;;;;;5092995;28;20027;-76
2023/09/23 04:45:24;;;;;;;1.30;0.60;;;;;;;;;;5093034;28;20044;-76
2023/09/23 04:47:50;;;;;;;0.70;0.35;;;;;;;;;;5092815;28;20103;-76
2023/09/23 04:50:17;;;;;;;0.40;0.40;;;18.20;78.30;;;;;;5093409;28;20107;-75
2023/09/23 04:52:44;;;;;;;0.50;0.30;;;;;;;;;;5092815;28;20028;-76
2023/09/23 04:55:11;;;;;;;0.80;0.50;;;;;;;;;;5093100;28;20039;-75
2023/09/23 04:57:37;;;;;;;1.00;0.57;;;;;;;;;;5092709;28;20063;-75
2023/09/23 05:00:04;;;;;;;0.90;0.50;;;;;;;;;;5092730;28;20398;-76
2023/09/23 05:02:31;;;;;;;3.92;0.70;;;;;;;;;;5093044;28;20360;-76
2023/09/23 05:04:57;;;;;;;1.75;0.50;;;;;;;;;;5092808;28;20047;-76
2023/09/23 05:07:27;;;;;;;0.73;0.50;;;;;;;;;;5092513;28;20625;-75
2023/09/23 05:09:55;;;;;;;1.25;0.50;;;;;;;;;;5092330;28;20562;-77
2023/09/23 05:12:22;;;;;;;1.55;0.50;;;;;;;;;;5096681;28;20035;-79
2023/09/23 05:14:48;;;;;;;0.63;0.30;;;;;;;;;;5092983;28;20028;-80
2023/09/23 05:17:16;;;;;;;1.35;0.73;;;;;;;;;;5092770;28;20103;-81
2023/09/23 05:19:43;;;;;;;0.82;0.57;;;18.20;77.10;;;;;;5092374;28;20081;-82
2023/09/23 05:22:10;;;;;;;1.42;0.70;;;;;;;;;;5092217;28;20024;-76
2023/09/23 05:24:38;;;;;;;0.70;0.60;;;18.20;75.00;;;;;;5092587;28;20394;-76
2023/09/23 05:27:04;;;;;;;2.58;0.63;;;;;;;;;;5092163;28;20063;-79
2023/09/23 05:29:31;;;;;;;1.33;0.68;;;;;;;;;;5092195;28;20047;-75
2023/09/23 05:31:57;;;;;;;0.60;0.50;;;;;;;;;;5092663;28;20070;-75
2023/09/23 05:34:23;;;;;;;0.75;0.47;;;;;;;;;;5092164;28;20048;-76
2023/09/23 05:36:49;;;;;;;1.40;0.40;;;;;;;;;;5092244;28;20024;-76
2023/09/23 05:39:19;;;;;;;0.68;0.47;;;;;;;;;;5092350;28;20140;-76
2023/09/23 05:41:47;;;;;;;0.52;0.40;;;;;;;;;;5092214;28;20028;-76
2023/09/23 05:44:13;;;;;;;1.38;0.40;;;;;;;;;;5092167;28;20020;-76
2023/09/23 05:46:42;;;;;;;1.52;0.43;;;;;;;;;;5092128;28;20024;-76
2023/09/23 05:49:08;;;;;;;2.80;0.55;;;;;;;;;;5091893;28;20481;-76
2023/09/23 05:51:34;;;;;;;1.00;0.40;;;;;;;;;;5091452;28;20470;-76
2023/09/23 05:54:01;;;;;;;1.25;0.52;;;;;;;;;;5091884;28;20106;-76
2023/09/23 05:56:27;;;;;;;2.50;0.40;;;;;;;;;;5091863;28;20055;-76
2023/09/23 05:58:53;;;;;;;1.67;0.55;;;;;;;;;;5092467;28;20128;-76
2023/09/23 06:01:19;;;;;;;0.88;0.40;;;;;;;;;;5091650;28;20032;-76
2023/09/23 06:03:45;;;;;;;0.95;0.57;;;;;;;;;;5091796;28;20020;-77
2023/09/23 06:06:11;;;;;;;1.02;0.63;;;;;;;;;;5091835;28;20115;-76
2023/09/23 06:08:37;;;;;;;1.23;0.60;;;;;;;;;;5091553;28;20040;-76
2023/09/23 06:11:04;;;;;;;0.40;0.30;;;;;;;;;;5090581;28;20056;-76
2023/09/23 06:13:31;;;;;;;3.35;0.60;;;;;;;;;;5091726;28;20032;-76
2023/09/23 06:16:06;;;;;;;1.92;0.75;;;18.30;78.90;;;;;;5091758;28;20023;-76
2023/09/23 06:18:33;;;;;;;1.35;0.50;;;;;;;;;;5091771;28;20526;-76
2023/09/23 06:21:00;;;;;;;1.95;0.60;;;18.10;75.70;;;;;;5091747;28;20519;-76
2023/09/23 06:23:26;;;;;;;0.70;0.47;;;;;;;;;;5091626;28;20037;-76
2023/09/23 06:25:53;;;;;;;0.98;0.40;;;18.00;78.60;;;;;;5091411;28;20414;-76
2023/09/23 06:28:19;;;;;;;1.15;0.40;;;;;;;;;;5092065;28;20070;-76
2023/09/23 06:30:46;;;;;;;0.90;0.52;;;;;;;;;;5091499;28;20548;-77
2023/09/23 06:33:11;;;;;;;1.15;0.68;;;;;;;;;;5091442;28;20016;-76
2023/09/23 06:35:37;;;;;;;1.45;0.40;;;;;;;;;;5091494;28;20116;-76
2023/09/23 06:38:03;;;;;;;1.00;0.40;;;;;;;;;;5091596;28;20032;-76
2023/09/23 06:40:29;;;;;;;1.92;0.50;;;;;;;;;;5091478;28;20020;-77
2023/09/23 06:42:56;;;;;;;2.55;0.70;;;;;;;;;;5091402;28;20402;-76
2023/09/23 06:45:22;;;;;;;2.25;0.40;;;;;;;;;;5091651;28;20076;-77
2023/09/23 06:47:48;;;;;;;0.73;0.38;;;;;;;;;;5094267;28;20042;-75
2023/09/23 06:50:14;;;;;;;1.75;0.68;;;;;;;;;;5092268;28;20093;-79
2023/09/23 06:52:40;;;;;;;1.13;0.50;;;;;;;;;;5091479;28;20070;-78
2023/09/23 06:55:06;;;;;;;0.73;0.38;;;;;;;;;;5091371;28;20047;-79
2023/09/23 06:57:35;;;;;;;4.53;0.50;;;;;;;;;;5091917;28;20020;-78
2023/09/23 07:00:01;;;;;;;1.65;0.50;;;;;;;;;;5091479;28;20379;-79
2023/09/23 07:02:27;;;;;;;0.73;0.50;;;;;;;;;;5091130;28;20073;-79
2023/09/23 07:04:53;;;;;;;0.80;0.40;;;;;;;;;;5093623;28;20024;-77
2023/09/23 07:07:19;;;;;;;1.02;0.40;;;;;;;;;;5094893;28;20081;-77
2023/09/23 07:09:46;;;;;;;0.80;0.40;;;;;;;;;;5095029;28;20469;-77
2023/09/23 07:12:13;;;;;;;0.98;0.38;;;;;;;;;;5094737;28;20024;-77
2023/09/23 07:14:40;;;;;;;2.38;0.80;;;;;;;;;;5095042;28;20039;-77
2023/09/23 07:17:07;;;;;;;3.63;0.38;;;;;;;;;;5094917;28;20032;-81
2023/09/23 07:19:34;;;;;;;0.90;0.38;;;;;;;;;;5094720;28;20048;-79
2023/09/23 07:22:00;;;;;;;2.35;0.50;;;;;;;;;;5094685;28;20055;-78
2023/09/23 07:24:27;;;;;;;0.63;0.40;;;;;;;;;;5095262;28;20465;-77
2023/09/23 07:26:59;;;;;;;2.33;0.85;;;18.10;73.60;;;;;;5094214;28;20127;-75
2023/09/23 07:29:25;;;;;;;1.35;0.60;;;;;;;;;;5094620;28;20046;-76
2023/09/23 07:31:53;;;;;;;1.15;0.52;;;;;;;;;;5094150;28;20520;-79
2023/09/23 07:34:20;;;;;;;1.25;0.50;;;;;;;;;;5094176;28;20028;-79
2023/09/23 07:36:46;;;;;;;0.32;0.30;;;;;;;;;;5094520;28;20063;-78
2023/09/23 07:39:14;;;;;;;1.20;0.60;;;;;;;;;;5094546;28;20444;-80
2023/09/23 07:41:40;;;;;;;0.70;0.50;;;;;;;;;;5094071;28;20058;-82
2023/09/23 07:44:07;;;;;;;1.55;0.40;;;;;;;;;;5094328;28;20073;-80
2023/09/23 07:46:33;;;;;;;1.05;0.35;;;;;;;;;;5094002;28;20048;-77
2023/09/23 07:48:59;;;;;;;1.63;0.30;;;;;;;;;;5093886;28;20062;-78
2023/09/23 07:51:25;;;;;;;1.10;0.47;;;;;;;;;;5093855;28;20028;-78
2023/09/23 07:53:52;;;;;;;2.60;0.43;;;18.10;76.30;;;;;;5093918;28;20124;-78
2023/09/23 07:56:18;;;;;;;1.25;0.40;;;;;;;;;;5093792;28;20027;-78
2023/09/23 07:58:44;;;;;;;3.53;0.47;;;;;;;;;;5093575;28;20028;-78
2023/09/23 08:01:10;;;;;;;3.20;0.50;;;;;;;;;;5093776;28;20028;-76
2023/09/23 08:03:37;;;;;;;2.17;0.57;;;;;;;;;;5093757;28;20028;-79
2023/09/23 08:06:03;;;;;;;2.65;0.75;;;;;;;;;;5093837;28;20024;-79
2023/09/23 08:08:30;;;;;;;3.40;0.65;;;;;;;;;;5093464;28;20390;-79
2023/09/23 08:10:56;;;;;;;4.93;0.63;;;;;;;;;;5093553;28;20036;-79
2023/09/23 08:13:22;;;;;;;1.40;0.60;;;;;;;;;;5094110;28;20029;-79
2023/09/23 08:15:48;;;;;;;0.90;0.38;;;;;;;;;;5093031;28;20020;-81
2023/09/23 08:18:14;;;;;;;1.25;0.60;;;;;;;;;;5093337;28;20031;-79
2023/09/23 08:20:40;;;;;;;1.35;0.60;;;;;;;;;;5093670;28;20085;-79
2023/09/23 08:23:06;;;;;;;3.47;0.88;;;;;;;;;;5093478;28;20056;-80
2023/09/23 08:25:33;;;;;;;2.65;1.10;;;18.20;77.00;;;;;;5093378;28;20023;-79
2023/09/23 08:28:01;;;;;;;0.77;0.40;;;;;;;;;;5093107;28;20055;-80
2023/09/23 08:30:26;;;;;;;0.70;0.40;;;;;;;;;;5095156;28;20028;-78
2023/09/23 08:32:53;;;;;;;3.45;0.50;;;;;;;;;;5094764;28;20028;-76
2023/09/23 08:35:20;;;;;;;1.67;0.40;;;;;;;;;;5093206;28;20101;-78
2023/09/23 08:37:46;;;;;;;0.95;0.40;;;;;;;;;;5092979;28;20411;-81
2023/09/23 08:40:19;;;;;;;1.25;0.50;;;18.20;80.30;;;;;;5093466;28;20055;-78
2023/09/23 08:42:50;;;;;;;2.55;0.70;;;18.10;80.20;;;;;;5093069;28;20069;-79
2023/09/23 08:45:16;;;;;;;1.05;0.60;;;;;;;;;;5093010;28;20032;-80
2023/09/23 08:47:43;;;;;;;1.15;0.50;;;;;;;;;;5093190;28;20035;-79
2023/09/23 08:50:10;;;;;;;2.05;0.88;;;;;;;;;;5092734;28;20051;-75
2023/09/23 08:52:37;;;;;;;4.95;0.90;;;18.20;77.70;;;;;;5093271;28;20047;-79
2023/09/23 08:55:06;;;;;;;1.23;0.57;;;18.20;80.60;;;;;;5092754;28;20024;-78
2023/09/23 08:57:32;;;;;;;0.85;0.50;;;;;;;;;;5092776;28;20027;-77
2023/09/23 08:59:59;;;;;;;1.17;0.60;;;;;;;;;;5093000;28;20048;-78
2023/09/23 09:02:26;;;;;;;1.25;0.80;;;;;;;;;;5092952;28;20021;-78
2023/09/23 09:04:54;;;;;;;1.35;0.55;;;18.30;80.50;;;;;;5092880;28;20032;-79
2023/09/23 09:07:38;;;;;;;1.90;0.70;;;18.30;75.40;;;;;;5092851;28;20028;-79
2023/09/23 09:10:05;;;;;;;1.55;0.68;;;18.30;80.50;;;;;;5093644;28;20112;-79
2023/09/23 09:12:32;;;;;;;3.15;0.70;;;18.30;77.70;;;;;;5092482;28;20027;-79
2023/09/23 09:14:59;;;;;;;1.42;0.50;;;;;;;;;;5092750;28;20048;-80
2023/09/23 09:17:26;;;;;;;2.80;0.50;;;;;;;;;;5092702;28;20093;-79
2023/09/23 09:19:52;;;;;;;2.83;0.35;;;;;;;;;;5092379;28;20024;-80
2023/09/23 09:22:21;;;;;;;2.03;0.60;;;18.30;80.50;;;;;;5092362;28;20050;-80
2023/09/23 09:24:47;;;;;;;2.40;0.82;;;;;;;;;;5092244;28;20073;-79
2023/09/23 09:27:14;;;;;;;0.98;0.50;;;;;;;;;;5091155;28;20052;-80
2023/09/23 09:29:41;;;;;;;2.67;0.68;;;;;;;;;;5092118;28;20032;-80
2023/09/23 09:32:09;;;;;;;1.98;0.50;;;18.40;79.10;;;;;;5092114;28;20024;-80
2023/09/23 09:34:45;;;;;;;2.10;0.85;;;18.40;81.30;;;;;;5092059;28;20032;-79
2023/09/23 09:37:13;;;;;;;1.33;0.65;;;;;;;;;;5092545;28;20081;-80
2023/09/23 09:39:49;;;;;;;1.55;0.50;;;18.40;81.40;;;;;;5092195;28;20028;-81
2023/09/23 09:42:23;;;;;;;1.77;0.75;;;18.40;81.50;;;;;;5092065;28;20032;-81
2023/09/23 09:44:54;;;;;;;1.92;0.65;;;18.50;81.30;;;;;;5092010;28;20024;-81
2023/09/23 09:47:20;;;;;;;;;;;18.50;82.60;;;;;;5092702;28;20058;-81
2023/09/23 09:49:46;;;;;;;1.40;0.55;;;;;;;;;;5091852;28;19912;-81
2023/09/23 09:52:13;;;;;;;1.77;0.63;;;18.60;81.30;;;;;;5091943;28;20463;-88
2023/09/23 09:54:40;;;;;;;4.15;0.95;;;18.60;81.20;;;;;;5091967;28;20497;-82
2023/09/23 09:57:12;;;;;;;3.15;0.63;;;;;;;;;;5091824;28;20024;-82
2023/09/23 09:59:39;;;;;;;1.55;0.60;;;;;;;;;;5091952;28;20020;-83
2023/09/23 10:02:06;;;;;;;1.58;0.52;;;;;;;;;;5091735;28;20027;-83
2023/09/23 10:04:32;;;;;;;3.83;0.70;;;;;;;;;;5091956;28;20073;-83
2023/09/23 10:06:58;;;;;;;1.90;0.60;;;;;;;;;;5092391;28;20028;-83
2023/09/23 10:09:28;;;;;;;1.17;0.43;;;18.60;76.00;;;;;;5091745;28;20039;-83
2023/09/23 10:11:54;;;;;;;1.58;0.57;;;;;;;;;;5091830;28;20020;-83
2023/09/23 10:14:21;;;;;;;1.05;0.50;;;;;;;;;;5091786;28;20036;-83
2023/09/23 10:16:51;;;;;;;1.35;0.50;;;18.70;76.20;;;;;;5091780;28;20024;-83
2023/09/23 10:19:38;;;;;;;0.98;0.45;;;18.70;81.60;;;;;;5091761;28;20028;-83
2023/09/23 10:22:17;;;;;;;2.17;0.65;;;18.80;76.00;;;;;;5091706;28;20024;-83
2023/09/23 10:24:44;;;;;;;1.45;0.40;;;;;;;;;;5091859;28;20024;-83
2023/09/23 10:27:10;;;;;;;1.15;0.50;;;;;;;;;;5091343;28;20487;-83
2023/09/23 10:29:45;;;;;;;1.35;0.47;;;18.80;76.10;;;;;;5091919;28;20081;-83
2023/09/23 10:32:14;;;;;;;3.15;0.55;;;18.80;80.20;;;;;;5090770;28;20375;-83
2023/09/23 10:34:52;;;;;;;1.52;0.77;;;19.00;75.40;;;;;;5092444;28;20335;-84
2023/09/23 10:37:32;;;;;;;1.30;0.50;;;19.00;75.20;;;;;;5091494;28;20505;-81
2023/09/23 10:40:12;;;;;;;2.28;0.50;;;19.00;75.30;;;;;;5095860;28;20024;-85
2023/09/23 10:42:40;;;;;;;1.27;0.45;;;19.00;78.90;;;;;;5095543;28;20028;-80
2023/09/23 10:45:08;;;;;;;3.47;0.63;;;18.90;79.80;;;;;;5095566;28;20047;-82
2023/09/23 10:47:35;;;;;;;2.10;0.60;;;;;;;;;;5095752;28;20050;-82
2023/09/23 10:50:05;;;;;;;2.40;0.50;;;19.10;80.90;;;;;;5095397;28;20036;-82
2023/09/23 10:52:32;;;;;;;1.67;0.80;;;;;;;;;;5095564;28;20407;-80
2023/09/23 10:54:58;;;;;;;3.65;0.50;;;;;;;;;;5095460;28;20032;-82
2023/09/23 10:57:25;;;;;;;2.13;0.60;;;;;;;;;;5095434;28;20044;-81
2023/09/23 10:59:52;;;;;;;0.70;0.50;;;;;;;;;;5095010;28;20031;-87
2023/09/23 11:02:22;;;;;;;3.45;0.52;;;19.30;75.00;;;;;;5095628;28;20442;-83
2023/09/23 11:04:49;;;;;;;0.70;0.40;;;19.40;77.30;;;;;;5095176;28;20028;-84
2023/09/23 11:07:16;;;;;;;1.08;0.40;;;;;;;;;;5094792;28;20024;-84
2023/09/23 11:09:46;;;;;;;1.10;0.43;;;;;;;;;;5095014;28;20035;-84
2023/09/23 11:12:13;;;;;;;1.65;0.50;;;19.30;79.20;;;;;;5095118;28;20024;-72
2023/09/23 11:14:44;;;;;;;1.58;0.40;;;20.10;75.50;;;;;;5094817;28;20032;-72
2023/09/23 11:17:29;;;;;;;1.17;0.40;;;19.40;75.20;;;;;;5094734;28;20016;-72
2023/09/23 11:19:59;;;;;;;1.83;0.47;;;19.40;75.30;;;;;;5094933;28;20058;-72
2023/09/23 11:22:29;;;;;;;0.40;0.40;;;19.40;75.50;;;;;;5094773;28;20419;-72
2023/09/23 11:24:57;;;;;;;0.40;0.13;;;19.30;81.10;;;;;;5094542;28;20062;-72
2023/09/23 11:27:26;;;;;;;1.63;0.57;;;19.30;79.50;;;;;;5094354;28;20040;-73
2023/09/23 11:29:55;;;;;;;1.40;0.50;;;;;;;;;;5094757;28;20035;-72
2023/09/23 11:32:23;;;;;;;1.60;0.40;;;19.30;81.00;;;;;;5094831;28;20298;-72
2023/09/23 11:34:50;;;;;;;1.58;0.40;;;;;;;;;;5094643;28;20344;-72
2023/09/23 11:37:18;;;;;;;0.68;0.40;;;19.30;80.90;;;;;;5094620;28;20024;-72
2023/09/23 11:39:44;;;;;;;1.58;0.60;;;;;;;;;;5093098;28;20032;-72
2023/09/23 11:42:10;;;;;;;1.27;0.50;;;;;;;;;;5093354;28;20066;-72
2023/09/23 11:44:37;;;;;;;1.33;0.45;;;;;;;;;;5093307;28;20052;-72
2023/09/23 11:47:04;;;;;;;1.27;0.60;;;;;;;;;;5093170;28;20048;-72
2023/09/23 11:49:30;;;;;;;0.88;0.55;;;;;;;;;;5091928;28;20490;-73
2023/09/23 11:51:57;;;;;;;1.13;0.50;;;;;;;;;;5094390;28;20447;-72
2023/09/23 11:54:24;;;;;;;1.55;0.50;;;;;;;;;;5093059;28;20036;-72
2023/09/23 11:56:50;;;;;;;0.95;0.30;;;;;;;;;;5093163;28;20442;-72
2023/09/23 11:59:20;;;;;;;0.60;0.40;;;;;;;;;;5093510;28;20036;-72
2023/09/23 12:01:47;;;;;;;0.65;0.32;;;;;;;;;;5093796;28;20085;-73
2023/09/23 12:04:13;;;;;;;0.90;0.20;;;;;;;;;;5093725;28;20024;-73
2023/09/23 12:06:40;;;;;;;1.75;0.40;;;;;;;;;;5093935;28;20375;-72
2023/09/23 12:09:09;;;;;;;2.28;0.57;;;;;;;;;;5093561;28;20064;-72
2023/09/23 12:11:35;;;;;;;2.88;0.70;;;;;;;;;;5093643;28;20023;-72
2023/09/23 12:14:02;;;;;;;2.17;0.70;;;;;;;;;;5093603;28;20035;-71
2023/09/23 12:16:28;;;;;;;1.42;0.47;;;;;;;;;;5093759;28;20024;-72
2023/09/23 12:18:55;;;;;;;0.95;0.57;;;;;;;;;;5093833;28;20028;-72
2023/09/23 12:21:22;;;;;;;0.80;0.43;;;;;;;;;;5093719;28;20103;-72
2023/09/23 12:23:48;;;;;;;1.17;0.60;;;;;;;;;;5093351;28;20020;-72
2023/09/23 12:26:15;;;;;;;1.17;0.50;;;;;;;;;;5093135;28;20055;-72
2023/09/23 12:28:41;;;;;;;1.00;0.50;;;;;;;;;;5093368;28;20016;-71
2023/09/23 12:31:07;;;;;;;1.60;0.60;;;;;;;;;;5093393;28;20039;-73
2023/09/23 12:33:33;;;;;;;1.52;0.40;;;;;;;;;;5093280;28;20096;-71
2023/09/23 12:35:59;;;;;;;1.02;0.55;;;;;;;;;;5093468;28;20422;-71
2023/09/23 12:38:25;;;;;;;0.82;0.40;;;;;;;;;;5093277;28;20103;-71
2023/09/23 12:40:52;;;;;;;2.92;0.47;;;;;;;;;;5093503;28;20099;-70
2023/09/23 12:43:18;;;;;;;2.35;0.47;;;;;;;;;;5093151;28;20051;-70
2023/09/23 12:45:44;;;;;;;0.55;0.30;;;;;;;;;;5093355;28;20024;-70
2023/09/23 12:48:10;;;;;;;1.27;0.40;;;;;;;;;;5093430;28;20027;-73
2023/09/23 12:50:37;;;;;;;1.83;0.40;;;;;;;;;;5091888;28;20035;-70
2023/09/23 12:53:04;;;;;;;0.95;0.22;;;;;;;;;;5091732;28;20452;-71
2023/09/23 12:55:30;;;;;;;0.50;0.30;;;;;;;;;;5093071;28;20044;-70
2023/09/23 12:57:57;;;;;;;1.25;0.30;;;;;;;;;;5091834;28;20059;-72
2023/09/23 13:00:23;;;;;;;0.93;0.30;;;;;;;;;;5091440;28;20032;-71
2023/09/23 13:02:50;;;;;;;2.15;0.35;;;19.50;80.40;;;;;;5092573;28;20024;-71
2023/09/23 13:05:16;;;;;;;2.88;0.47;;;;;;;;;;5092586;28;20475;-71
2023/09/23 13:07:42;;;;;;;0.73;0.20;;;;;;;;;;5092486;28;20031;-71
2023/09/23 13:10:12;;;;;;;1.05;0.38;;;;;;;;;;5092358;28;20032;-71
2023/09/23 13:12:38;;;;;;;1.83;0.50;;;19.50;80.00;;;;;;5092344;28;20051;-71
2023/09/23 13:15:05;;;;;;;1.15;0.50;;;19.50;81.50;;;;;;5092859;28;20150;-71
2023/09/23 13:17:31;;;;;;;1.02;0.40;;;;;;;;;;5092400;28;20024;-71
2023/09/23 13:19:57;;;;;;;1.08;0.32;;;;;;;;;;5092411;28;20036;-71
2023/09/23 13:22:23;;;;;;;2.03;0.40;;;;;;;;;;5092363;28;20046;-70
2023/09/23 13:24:51;;;;;;;1.17;0.30;;;;;;;;;;5092336;28;20118;-71
2023/09/23 13:27:17;;;;;;;0.82;0.30;;;;;;;;;;5092135;28;20052;-71
2023/09/23 13:29:44;;;;;;;1.17;0.40;;;;;;;;;;5092211;28;20126;-71
2023/09/23 13:32:10;;;;;;;1.15;0.50;;;;;;;;;;5092393;28;20055;-71
2023/09/23 13:34:36;;;;;;;1.20;0.40;;;;;;;;;;5092539;28;20032;-71
2023/09/23 13:37:03;;;;;;;0.30;0.17;;;;;;;;;;5092236;28;20017;-71
2023/09/23 13:39:28;;;;;;;0.52;0.40;;;;;;;;;;5092152;28;20032;-71
2023/09/23 13:41:55;;;;;;;0.73;0.40;;;;;;;;;;5092104;28;20031;-71
2023/09/23 13:44:24;;;;;;;2.17;0.50;;;;;;;;;;5092598;28;20035;-71
2023/09/23 13:46:51;;;;;;;1.23;0.40;;;;;;;;;;5090727;28;20390;-71
2023/09/23 13:49:17;;;;;;;0.63;0.22;;;;;;;;;;5091890;28;20039;-71
2023/09/23 13:51:43;;;;;;;1.23;0.38;;;;;;;;;;5092031;28;20024;-71
2023/09/23 13:54:09;;;;;;;1.20;0.63;;;;;;;;;;5092069;28;20113;-71
2023/09/23 13:56:35;;;;;;;0.77;0.40;;;;;;;;;;5092110;28;20099;-71
2023/09/23 13:59:01;;;;;;;1.20;0.50;;;;;;;;;;5091873;28;20051;-71
2023/09/23 14:01:29;;;;;;;0.60;0.20;;;;;;;;;;5091803;28;20061;-71
2023/09/23 14:03:55;;;;;;;1.52;0.65;;;;;;;;;;5092086;28;20039;-71
2023/09/23 14:06:22;;;;;;;0.70;0.60;;;;;;;;;;5092154;28;20379;-71
2023/09/23 14:08:48;;;;;;;1.60;0.45;;;;;;;;;;5091775;28;20046;-71
2023/09/23 14:11:15;;;;;;;1.33;0.40;;;;;;;;;;5091900;28;20398;-71
2023/09/23 14:13:43;;;;;;;1.80;0.40;;;;;;;;;;5094163;28;20027;-71